createdAt,value
2022-10-17T00:00:05.445Z,9.55
2022-10-17T00:02:55.593Z,9.07
2022-10-17T00:05:25.015Z,9.32
2022-10-17T00:07:53.197Z,8.63
2022-10-17T00:10:21.636Z,9.77
2022-10-17T00:12:50.952Z,9.32
2022-10-17T00:15:20.521Z,9.05
2022-10-17T00:17:51.605Z,9.20
2022-10-17T00:20:19.431Z,9.05
2022-10-17T00:22:46.902Z,8.40
2022-10-17T00:25:14.829Z,9.07
2022-10-17T00:27:42.683Z,9.27
2022-10-17T00:30:14.282Z,9.55
2022-10-17T00:32:41.747Z,9.60
2022-10-17T00:35:09.954Z,9.75
2022-10-17T00:37:37.537Z,8.90
2022-10-17T00:40:07.142Z,9.48
2022-10-17T00:42:34.971Z,8.98
2022-10-17T00:45:17.488Z,9.55
2022-10-17T00:47:51.573Z,9.88
2022-10-17T00:50:20.103Z,9.82
2022-10-17T00:52:48.824Z,9.45
2022-10-17T00:55:18.190Z,9.73
2022-10-17T00:57:46.170Z,9.15
2022-10-17T01:00:15.215Z,9.23
2022-10-17T01:02:42.666Z,9.35
2022-10-17T01:05:11.473Z,9.45
2022-10-17T01:07:41.673Z,9.00
2022-10-17T01:10:10.876Z,9.38
2022-10-17T01:13:05.914Z,9.05
2022-10-17T01:15:36.557Z,9.00
2022-10-17T01:18:22.603Z,9.27
2022-10-17T01:20:59.012Z,8.70
2022-10-17T01:23:47.693Z,9.85
2022-10-17T01:26:45.580Z,9.43
2022-10-17T01:29:33.709Z,9.00
2022-10-17T01:32:18.745Z,9.35
2022-10-17T01:35:07.951Z,9.40
2022-10-17T01:38:12.853Z,9.13
2022-10-17T01:40:49.138Z,8.90
2022-10-17T01:43:29.458Z,8.90
2022-10-17T01:46:02.648Z,8.90
2022-10-17T01:48:35.753Z,9.00
2022-10-17T01:51:09.154Z,8.95
2022-10-17T01:53:42.344Z,8.93
2022-10-17T01:56:13.065Z,8.75
2022-10-17T01:58:47.392Z,8.80
2022-10-17T02:01:17.298Z,8.88
2022-10-17T02:03:47.458Z,9.52
2022-10-17T02:06:15.069Z,8.77
2022-10-17T02:08:46.049Z,8.98
2022-10-17T02:11:15.992Z,9.10
2022-10-17T02:14:04.223Z,8.77
2022-10-17T02:16:35.029Z,9.23
2022-10-17T02:19:29.883Z,8.65
2022-10-17T02:22:21.298Z,8.15
2022-10-17T02:25:19.649Z,9.73
2022-10-17T02:27:57.537Z,9.00
2022-10-17T02:30:39.922Z,9.50
2022-10-17T02:33:23.193Z,8.30
2022-10-17T02:35:55.110Z,9.15
2022-10-17T02:38:25.424Z,9.27
2022-10-17T02:40:53.364Z,9.10
2022-10-17T02:43:21.992Z,8.48
2022-10-17T02:45:52.501Z,8.73
2022-10-17T02:48:43.691Z,9.02
2022-10-17T02:51:40.222Z,8.60
2022-10-17T02:56:51.656Z,8.55
2022-10-17T02:59:22.567Z,8.80
2022-10-17T03:01:51.573Z,8.70
2022-10-17T03:04:19.520Z,8.73
2022-10-17T03:06:48.381Z,8.43
2022-10-17T03:09:16.313Z,9.07
2022-10-17T03:11:43.824Z,9.38
2022-10-17T03:14:11.134Z,8.45
2022-10-17T03:16:38.724Z,9.52
2022-10-17T03:19:06.229Z,9.13
2022-10-17T03:21:36.336Z,8.80
2022-10-17T03:24:04.286Z,8.80
2022-10-17T03:26:31.939Z,8.45
2022-10-17T03:28:59.236Z,8.98
2022-10-17T03:31:26.892Z,9.00
2022-10-17T03:33:54.171Z,8.57
2022-10-17T03:36:22.029Z,9.48
2022-10-17T03:38:49.393Z,9.00
2022-10-17T03:41:16.983Z,8.32
2022-10-17T03:43:44.358Z,8.68
2022-10-17T03:46:11.871Z,9.07
2022-10-17T03:48:39.199Z,8.40
2022-10-17T03:51:09.223Z,8.55
2022-10-17T03:53:36.546Z,8.88
2022-10-17T03:56:12.469Z,8.57
2022-10-17T03:58:40.460Z,8.35
2022-10-17T04:01:10.470Z,8.63
2022-10-17T04:03:38.281Z,8.38
2022-10-17T04:06:06.792Z,8.63
2022-10-17T04:08:34.833Z,8.93
2022-10-17T04:11:04.447Z,8.73
2022-10-17T04:13:31.963Z,9.18
2022-10-17T04:16:02.348Z,8.55
2022-10-17T04:18:29.684Z,8.68
2022-10-17T04:20:57.446Z,8.50
2022-10-17T04:23:26.470Z,8.60
2022-10-17T04:25:58.504Z,9.25
2022-10-17T04:28:27.152Z,9.13
2022-10-17T04:30:58.157Z,9.15
2022-10-17T04:33:25.689Z,9.50
2022-10-17T04:36:13.632Z,8.60
2022-10-17T04:38:41.383Z,8.60
2022-10-17T04:41:13.010Z,8.95
2022-10-17T04:43:41.204Z,8.60
2022-10-17T04:46:11.681Z,8.75
2022-10-17T04:48:40.113Z,8.18
2022-10-17T04:51:12.123Z,9.05
2022-10-17T04:53:40.812Z,8.30
2022-10-17T04:56:14.742Z,8.52
2022-10-17T04:58:43.026Z,9.25
2022-10-17T05:01:12.905Z,8.52
2022-10-17T05:03:40.641Z,8.20
2022-10-17T05:06:14.721Z,9.10
2022-10-17T05:08:43.034Z,8.50
2022-10-17T05:11:20.989Z,8.52
2022-10-17T05:13:58.562Z,9.20
2022-10-17T05:16:27.814Z,8.75
2022-10-17T05:18:57.184Z,8.52
2022-10-17T05:21:27.136Z,8.95
2022-10-17T05:23:55.192Z,8.98
2022-10-17T05:26:23.961Z,8.75
2022-10-17T05:28:54.853Z,8.63
2022-10-17T05:31:22.505Z,8.70
2022-10-17T05:33:49.855Z,8.93
2022-10-17T05:36:17.445Z,9.32
2022-10-17T05:38:49.301Z,9.15
2022-10-17T05:41:16.910Z,9.02
2022-10-17T05:43:44.390Z,9.30
2022-10-17T05:46:12.169Z,8.82
2022-10-17T05:48:39.425Z,8.27
2022-10-17T05:51:09.392Z,9.05
2022-10-17T05:53:40.045Z,8.95
2022-10-17T05:56:10.759Z,8.95
2022-10-17T05:58:50.348Z,9.82
2022-10-17T06:01:19.486Z,9.35
2022-10-17T06:03:46.751Z,8.93
2022-10-17T06:06:15.403Z,8.70
2022-10-17T06:08:43.560Z,9.27
2022-10-17T06:11:12.402Z,9.10
2022-10-17T06:13:41.193Z,8.80
2022-10-17T06:16:09.254Z,8.70
2022-10-17T06:18:42.864Z,9.20
2022-10-17T06:21:12.507Z,10.05
2022-10-17T06:23:39.860Z,9.73
2022-10-17T06:26:07.653Z,9.57
2022-10-17T06:28:35.855Z,9.00
2022-10-17T06:31:11.544Z,9.52
2022-10-17T06:33:39.509Z,9.18
2022-10-17T06:36:10.139Z,8.95
2022-10-17T06:38:37.731Z,8.98
2022-10-17T06:41:10.024Z,9.07
2022-10-17T06:43:37.939Z,9.18
2022-10-17T06:46:05.745Z,8.98
2022-10-17T06:48:33.319Z,8.85
2022-10-17T06:51:06.110Z,9.30
2022-10-17T06:53:34.941Z,9.40
2022-10-17T06:56:04.196Z,8.43
2022-10-17T06:58:36.006Z,9.10
2022-10-17T07:03:34.713Z,8.55
2022-10-17T07:06:03.281Z,8.43
2022-10-17T07:08:30.775Z,8.77
2022-10-17T07:10:58.723Z,9.20
2022-10-17T07:13:26.013Z,8.90
2022-10-17T07:18:25.671Z,8.32
2022-10-17T07:20:55.096Z,8.50
2022-10-17T07:23:23.054Z,8.40
2022-10-17T07:25:50.774Z,8.68
2022-10-17T07:28:18.506Z,8.70
2022-10-17T07:30:49.316Z,8.73
2022-10-17T07:33:18.019Z,8.70
2022-10-17T07:35:45.548Z,8.27
2022-10-17T07:38:12.837Z,8.07
2022-10-17T07:40:40.567Z,9.18
2022-10-17T07:43:07.973Z,9.07
2022-10-17T07:45:35.498Z,8.55
2022-10-17T07:48:02.837Z,8.45
2022-10-17T07:50:31.699Z,8.15
2022-10-17T07:52:59.088Z,8.43
2022-10-17T07:55:26.641Z,8.98
2022-10-17T07:57:53.973Z,8.93
2022-10-17T08:00:21.588Z,8.40
2022-10-17T08:02:49.091Z,8.35
2022-10-17T08:05:16.585Z,8.55
2022-10-17T08:07:44.077Z,8.50
2022-10-17T08:10:13.484Z,8.00
2022-10-17T08:12:40.986Z,8.30
2022-10-17T08:15:10.121Z,9.30
2022-10-17T08:17:38.858Z,8.63
2022-10-17T08:20:06.935Z,7.93
2022-10-17T08:22:34.910Z,8.30
2022-10-17T08:25:02.600Z,7.63
2022-10-17T08:27:30.133Z,7.90
2022-10-17T08:29:57.635Z,8.32
2022-10-17T08:32:27.240Z,8.10
2022-10-17T08:34:56.317Z,8.38
2022-10-17T08:37:24.058Z,8.18
2022-10-17T08:39:51.609Z,8.30
2022-10-17T08:42:21.705Z,8.30
2022-10-17T08:45:01.030Z,7.88
2022-10-17T08:47:38.249Z,8.27
2022-10-17T08:50:10.453Z,8.70
2022-10-17T08:52:52.405Z,7.78
2022-10-17T08:55:40.001Z,8.32
2022-10-17T08:58:17.047Z,7.60
2022-10-17T09:01:20.533Z,7.90
2022-10-17T09:04:21.794Z,8.20
2022-10-17T09:07:01.089Z,8.13
2022-10-17T09:09:34.373Z,8.10
2022-10-17T09:12:24.754Z,7.97
2022-10-17T09:15:13.708Z,8.07
2022-10-17T09:18:02.353Z,8.40
2022-10-17T09:20:38.278Z,7.85
2022-10-17T09:23:21.136Z,8.65
2022-10-17T09:25:52.482Z,8.15
2022-10-17T09:28:27.754Z,7.97
2022-10-17T09:31:05.112Z,7.88
2022-10-17T13:21:30.065Z,6.00
2022-10-17T13:23:57.667Z,6.40
2022-10-17T13:26:27.718Z,6.47
2022-10-17T13:29:04.742Z,6.55
2022-10-17T13:31:35.870Z,6.47
2022-10-17T13:34:19.484Z,6.57
2022-10-17T13:36:49.117Z,6.65
2022-10-17T13:39:32.644Z,6.28
2022-10-17T13:42:28.604Z,6.03
2022-10-17T13:44:58.386Z,6.47
2022-10-17T13:47:28.816Z,6.45
2022-10-17T13:49:58.333Z,6.47
2022-10-17T13:52:30.155Z,6.78
2022-10-17T13:55:17.567Z,6.13
2022-10-17T13:57:45.086Z,6.25
2022-10-17T14:00:20.743Z,6.72
2022-10-17T14:02:48.826Z,6.18
2022-10-17T14:05:21.752Z,6.40
2022-10-17T14:08:11.230Z,6.80
2022-10-17T14:10:41.685Z,6.57
2022-10-17T14:13:23.798Z,6.38
2022-10-17T14:15:53.916Z,6.32
2022-10-17T14:18:26.803Z,6.50
2022-10-17T14:21:34.003Z,6.63
2022-10-17T14:23:44.020Z,6.32
2022-10-17T14:26:16.814Z,6.10
2022-10-17T14:29:05.023Z,6.00
2022-10-17T14:31:37.008Z,6.10
2022-10-17T14:34:05.414Z,6.15
2022-10-17T14:36:38.051Z,6.10
2022-10-17T14:39:13.343Z,6.03
2022-10-17T14:41:45.411Z,6.10
2022-10-17T14:44:24.060Z,5.88
2022-10-17T14:46:55.990Z,6.32
2022-10-17T14:49:39.491Z,6.22
2022-10-17T14:52:18.340Z,6.15
2022-10-17T14:54:57.795Z,6.03
2022-10-17T14:57:31.283Z,5.60
2022-10-17T14:59:58.727Z,6.20
2022-10-17T15:02:28.483Z,6.00
2022-10-17T15:04:56.313Z,5.85
2022-10-17T15:07:24.343Z,6.00
2022-10-17T15:09:53.670Z,5.75
2022-10-17T15:12:25.587Z,6.15
2022-10-17T15:14:53.328Z,6.05
2022-10-17T15:17:29.933Z,6.00
2022-10-17T15:19:57.885Z,6.10
2022-10-17T15:22:25.402Z,5.65
2022-10-17T15:24:52.846Z,5.38
2022-10-17T15:27:22.817Z,5.97
2022-10-17T15:29:51.607Z,6.05
2022-10-17T15:32:19.497Z,6.13
2022-10-17T15:34:46.999Z,6.32
2022-10-17T15:37:21.976Z,6.25
2022-10-17T15:39:54.806Z,5.75
2022-10-17T15:42:26.941Z,6.00
2022-10-17T15:44:54.552Z,5.70
2022-10-17T15:47:27.414Z,5.85
2022-10-17T15:49:55.497Z,6.00
2022-10-17T15:52:23.911Z,5.90
2022-10-17T15:54:52.665Z,5.72
2022-10-17T15:57:24.555Z,5.80
2022-10-17T15:59:54.022Z,5.75
2022-10-17T16:02:23.508Z,5.63
2022-10-17T16:04:52.857Z,6.18
2022-10-17T16:07:20.997Z,5.95
2022-10-17T16:09:48.414Z,6.07
2022-10-17T16:12:26.702Z,5.88
2022-10-17T16:14:54.759Z,6.10
2022-10-17T16:17:22.323Z,5.68
2022-10-17T16:19:49.965Z,5.80
2022-10-17T16:22:38.550Z,5.90
2022-10-17T16:25:09.799Z,5.80
2022-10-17T16:27:38.334Z,6.57
2022-10-17T16:30:07.594Z,5.53
2022-10-17T16:32:35.178Z,5.55
2022-10-17T16:35:02.680Z,5.72
2022-10-17T16:37:30.384Z,5.63
2022-10-17T16:39:57.737Z,5.88
2022-10-17T16:42:25.307Z,5.57
2022-10-17T16:44:52.657Z,5.80
2022-10-17T16:47:20.168Z,5.53
2022-10-17T16:49:47.548Z,5.82
2022-10-17T16:52:15.632Z,5.38
2022-10-17T16:54:42.938Z,5.65
2022-10-17T16:57:10.567Z,6.00
2022-10-17T16:59:37.996Z,5.50
2022-10-17T17:02:06.083Z,5.60
2022-10-17T17:04:33.577Z,5.80
2022-10-17T17:07:01.263Z,5.43
2022-10-17T17:09:28.734Z,5.60
2022-10-17T17:11:56.308Z,5.90
2022-10-17T17:14:23.774Z,5.60
2022-10-17T17:16:51.419Z,5.47
2022-10-17T17:19:18.826Z,6.05
2022-10-17T17:21:52.461Z,5.32
2022-10-17T17:24:21.519Z,5.75
2022-10-17T17:26:54.254Z,5.47
2022-10-17T17:29:22.856Z,5.65
2022-10-17T17:31:51.021Z,5.38
2022-10-17T17:34:18.619Z,5.50
2022-10-17T17:36:47.233Z,5.28
2022-10-17T17:39:15.683Z,5.85
2022-10-17T17:41:44.193Z,5.15
2022-10-17T17:44:18.291Z,5.53
2022-10-17T17:46:46.333Z,5.78
2022-10-17T17:49:14.086Z,5.50
2022-10-17T17:51:45.979Z,5.35
2022-10-17T17:54:14.209Z,5.68
2022-10-17T17:56:42.039Z,5.25
2022-10-17T17:59:12.289Z,5.38
2022-10-17T18:01:40.431Z,5.57
2022-10-17T18:04:08.979Z,5.22
2022-10-17T18:06:38.886Z,5.35
2022-10-17T18:09:08.452Z,5.38
2022-10-17T18:11:37.469Z,5.03
2022-10-17T18:14:08.134Z,5.70
2022-10-17T18:16:37.949Z,5.57
2022-10-17T18:19:07.437Z,5.10
2022-10-17T18:21:36.328Z,5.20
2022-10-17T18:24:04.847Z,5.60
2022-10-17T18:26:32.997Z,5.40
2022-10-17T18:29:00.417Z,5.45
2022-10-17T18:31:32.089Z,5.13
2022-10-17T18:34:00.262Z,5.03
2022-10-17T18:36:29.556Z,5.80
2022-10-17T18:39:00.664Z,5.15
2022-10-17T18:41:28.868Z,5.15
2022-10-17T18:43:56.723Z,5.50
2022-10-17T18:46:30.178Z,5.47
2022-10-17T18:48:58.385Z,5.05
2022-10-17T18:51:26.869Z,5.35
2022-10-17T18:53:56.419Z,5.20
2022-10-17T18:56:25.165Z,5.13
2022-10-17T18:58:53.030Z,4.97
2022-10-17T19:01:22.828Z,5.40
2022-10-17T19:03:52.382Z,5.15
2022-10-17T19:06:23.268Z,4.80
2022-10-17T19:08:50.962Z,5.32
2022-10-17T19:11:21.869Z,5.53
2022-10-17T19:13:49.644Z,5.38
2022-10-17T19:16:24.629Z,4.80
2022-10-17T19:19:00.613Z,5.45
2022-10-17T19:21:28.172Z,5.15
2022-10-17T19:23:58.232Z,4.95
2022-10-17T19:26:27.627Z,4.85
2022-10-17T19:28:55.189Z,5.15
2022-10-17T19:31:27.114Z,5.15
2022-10-17T19:33:55.936Z,5.05
2022-10-17T19:36:32.356Z,5.18
2022-10-17T19:39:06.392Z,4.68
2022-10-17T19:41:35.994Z,4.82
2022-10-17T19:44:03.533Z,5.30
2022-10-17T19:46:33.789Z,5.90
2022-10-17T19:49:01.546Z,5.38
2022-10-17T19:51:29.997Z,4.90
2022-10-17T19:54:02.519Z,5.07
2022-10-17T19:56:33.260Z,5.35
2022-10-17T19:59:00.676Z,4.90
2022-10-17T20:01:32.380Z,5.25
2022-10-17T20:04:00.423Z,4.70
2022-10-17T20:06:27.983Z,4.95
2022-10-17T20:08:55.975Z,5.43
2022-10-17T20:11:26.082Z,5.00
2022-10-17T20:13:54.896Z,5.35
2022-10-17T20:16:25.929Z,5.07
2022-10-17T20:18:56.917Z,5.10
2022-10-17T20:21:27.385Z,4.82
2022-10-17T20:23:55.154Z,4.80
2022-10-17T20:26:37.088Z,5.00
2022-10-17T20:29:11.974Z,4.97
2022-10-17T20:31:41.724Z,4.90
2022-10-17T20:34:11.683Z,4.70
2022-10-17T20:36:39.295Z,5.45
2022-10-17T20:39:07.458Z,4.93
2022-10-17T20:41:35.125Z,5.22
2022-10-17T20:44:02.573Z,4.50
2022-10-17T20:46:36.976Z,4.97
2022-10-17T20:49:07.548Z,4.90
2022-10-17T20:51:36.111Z,5.15
2022-10-17T20:54:04.463Z,5.18
2022-10-17T20:56:33.390Z,5.63
2022-10-17T20:59:04.509Z,5.70
2022-10-17T21:01:34.185Z,4.88
2022-10-17T21:04:21.374Z,5.30
2022-10-17T21:06:51.842Z,5.15
2022-10-17T21:09:20.166Z,4.90
2022-10-17T21:11:51.114Z,5.05
2022-10-17T21:14:18.825Z,5.40
2022-10-17T21:16:46.535Z,5.00
2022-10-17T21:19:14.889Z,5.20
2022-10-17T21:21:44.839Z,5.03
2022-10-17T21:24:14.582Z,4.82
2022-10-17T21:26:43.586Z,4.95
2022-10-17T21:29:13.112Z,5.28
2022-10-17T21:31:43.448Z,5.00
2022-10-17T21:34:17.661Z,5.18
2022-10-17T21:36:45.524Z,5.43
2022-10-17T21:39:14.098Z,5.45
2022-10-17T21:41:42.985Z,5.07
2022-10-17T21:44:16.893Z,5.40
2022-10-17T21:46:44.765Z,4.93
2022-10-17T21:49:14.156Z,5.28
2022-10-17T21:51:42.275Z,5.72
2022-10-17T21:54:09.642Z,5.40
2022-10-17T21:56:37.753Z,5.20
2022-10-17T21:59:06.793Z,5.07
2022-10-17T22:01:37.325Z,5.22
2022-10-17T22:04:07.494Z,4.80
2022-10-17T22:06:40.318Z,5.53
2022-10-17T22:09:14.753Z,5.65
2022-10-17T22:11:45.389Z,6.13
2022-10-17T22:14:15.286Z,5.70
2022-10-17T22:16:44.949Z,5.53
2022-10-17T22:19:14.070Z,5.55
2022-10-17T22:21:42.216Z,5.40
2022-10-17T22:24:12.519Z,5.57
2022-10-17T22:26:40.707Z,5.85
2022-10-17T22:29:08.912Z,5.13
2022-10-17T22:31:37.781Z,5.53
2022-10-17T22:34:06.012Z,5.70
2022-10-17T22:36:35.084Z,5.72
2022-10-17T22:39:03.692Z,5.65
2022-10-17T22:41:31.418Z,5.43
2022-10-17T22:43:58.841Z,5.25
2022-10-17T22:46:26.457Z,5.90
2022-10-17T22:48:53.839Z,5.53
2022-10-17T22:51:21.515Z,6.07
2022-10-17T22:53:48.834Z,5.93
2022-10-17T22:56:19.309Z,5.57
2022-10-17T22:58:47.292Z,6.05
2022-10-17T23:01:17.785Z,6.28
2022-10-17T23:03:45.497Z,5.63
2022-10-17T23:06:13.771Z,5.97
2022-10-17T23:08:41.148Z,5.68
2022-10-17T23:11:09.649Z,5.40
2022-10-17T23:13:37.728Z,6.22
2022-10-17T23:16:05.498Z,5.78
2022-10-17T23:18:32.925Z,5.55
2022-10-17T23:21:00.458Z,5.90
2022-10-17T23:23:27.799Z,5.65
2022-10-17T23:25:56.333Z,6.13
2022-10-17T23:28:23.739Z,5.82
2022-10-17T23:30:51.365Z,5.50
2022-10-17T23:33:18.611Z,6.18
2022-10-17T23:35:46.166Z,5.45
2022-10-17T23:38:13.444Z,6.05
2022-10-17T23:40:40.996Z,5.80
2022-10-17T23:43:08.493Z,5.93
2022-10-17T23:45:37.213Z,5.60
2022-10-17T23:48:05.455Z,6.28
2022-10-17T23:50:33.034Z,5.90
2022-10-17T23:53:00.377Z,6.03
2022-10-17T23:55:28.065Z,5.90
2022-10-17T23:57:55.424Z,6.15
